sensor_id;sensor_type;location;lat;lon;timestamp;pressure;altitude;pressure_sealevel;temperature;humidity
29879;BME280;16752;53.364;-1.488;2022-12-29T00:01:05;97405.22;;;15.85;43.61
29879;BME280;16752;53.364;-1.488;2022-12-29T00:03:30;97412.91;;;15.80;43.84
29879;BME280;16752;53.364;-1.488;2022-12-29T00:06:01;97413.56;;;15.43;44.47
29879;BME280;16752;53.364;-1.488;2022-12-29T00:08:34;97420.63;;;15.95;43.21
29879;BME280;16752;53.364;-1.488;2022-12-29T00:11:07;97402.78;;;15.84;43.21
29879;BME280;16752;53.364;-1.488;2022-12-29T00:13:34;97400.72;;;14.87;45.51
29879;BME280;16752;53.364;-1.488;2022-12-29T00:16:19;97419.22;;;15.53;44.58
29879;BME280;16752;53.364;-1.488;2022-12-29T00:18:54;97413.16;;;15.59;44.41
29879;BME280;16752;53.364;-1.488;2022-12-29T00:21:22;97432.50;;;16.31;43.09
29879;BME280;16752;53.364;-1.488;2022-12-29T00:24:17;97402.59;;;15.26;44.78
29879;BME280;16752;53.364;-1.488;2022-12-29T00:29:49;97384.78;;;16.19;42.78
29879;BME280;16752;53.364;-1.488;2022-12-29T00:32:45;97386.94;;;15.57;43.97
29879;BME280;16752;53.364;-1.488;2022-12-29T00:35:58;97392.63;;;15.15;44.72
29879;BME280;16752;53.364;-1.488;2022-12-29T00:38:28;97352.25;;;15.54;44.34
29879;BME280;16752;53.364;-1.488;2022-12-29T00:41:18;97374.41;;;16.24;42.62
29879;BME280;16752;53.364;-1.488;2022-12-29T00:44:02;97381.28;;;15.74;43.75
29879;BME280;16752;53.364;-1.488;2022-12-29T00:49:21;97361.97;;;15.86;43.35
29879;BME280;16752;53.364;-1.488;2022-12-29T00:51:59;97369.91;;;14.94;44.94
29879;BME280;16752;53.364;-1.488;2022-12-29T00:54:25;97367.91;;;15.62;44.12
29879;BME280;16752;53.364;-1.488;2022-12-29T00:56:51;97397.94;;;15.21;44.22
29879;BME280;16752;53.364;-1.488;2022-12-29T00:59:26;97364.53;;;16.06;42.95
29879;BME280;16752;53.364;-1.488;2022-12-29T01:02:16;97374.75;;;15.89;43.04
29879;BME280;16752;53.364;-1.488;2022-12-29T01:04:47;97373.38;;;15.14;44.59
29879;BME280;16752;53.364;-1.488;2022-12-29T01:07:22;97364.97;;;15.97;43.90
29879;BME280;16752;53.364;-1.488;2022-12-29T01:12:41;97368.31;;;15.66;44.49
29879;BME280;16752;53.364;-1.488;2022-12-29T01:15:32;97367.91;;;15.62;44.51
29879;BME280;16752;53.364;-1.488;2022-12-29T01:18:27;97366.81;;;16.41;42.56
29879;BME280;16752;53.364;-1.488;2022-12-29T01:21:13;97387.31;;;15.94;43.64
29879;BME280;16752;53.364;-1.488;2022-12-29T01:23:38;97375.19;;;15.67;43.71
29879;BME280;16752;53.364;-1.488;2022-12-29T01:26:10;97348.44;;;14.97;44.92
29879;BME280;16752;53.364;-1.488;2022-12-29T01:28:42;97370.13;;;15.39;44.65
29879;BME280;16752;53.364;-1.488;2022-12-29T01:31:08;97387.78;;;15.45;44.31
29879;BME280;16752;53.364;-1.488;2022-12-29T01:33:39;97386.38;;;15.29;44.50
29879;BME280;16752;53.364;-1.488;2022-12-29T01:36:06;97388.09;;;16.08;42.90
29879;BME280;16752;53.364;-1.488;2022-12-29T01:38:36;97402.78;;;15.51;44.13
29879;BME280;16752;53.364;-1.488;2022-12-29T01:41:02;97394.09;;;15.64;44.12
29879;BME280;16752;53.364;-1.488;2022-12-29T01:52:28;97456.78;;;15.81;42.92
29879;BME280;16752;53.364;-1.488;2022-12-29T02:00:46;97455.97;;;15.94;44.54
29879;BME280;16752;53.364;-1.488;2022-12-29T02:03:12;97475.84;;;15.97;44.74
29879;BME280;16752;53.364;-1.488;2022-12-29T02:08:29;97476.88;;;15.76;46.27
29879;BME280;16752;53.364;-1.488;2022-12-29T02:10:58;97476.72;;;15.64;47.06
29879;BME280;16752;53.364;-1.488;2022-12-29T02:13:37;97511.78;;;15.45;48.08
29879;BME280;16752;53.364;-1.488;2022-12-29T04:23:37;97684.28;;;15.09;47.82
29879;BME280;16752;53.364;-1.488;2022-12-29T04:27:04;97704.78;;;14.30;49.29
29879;BME280;16752;53.364;-1.488;2022-12-29T05:07:57;97808.41;;;14.58;47.90
29879;BME280;16752;53.364;-1.488;2022-12-29T05:36:25;97862.50;;;14.40;47.61
29879;BME280;16752;53.364;-1.488;2022-12-29T05:38:53;97863.03;;;13.55;49.53
29879;BME280;16752;53.364;-1.488;2022-12-29T05:41:22;97881.28;;;14.00;48.05
29879;BME280;16752;53.364;-1.488;2022-12-29T05:49:56;97893.97;;;13.97;47.80
29879;BME280;16752;53.364;-1.488;2022-12-29T05:52:42;97902.03;;;14.25;47.11
29879;BME280;16752;53.364;-1.488;2022-12-29T05:55:11;97901.47;;;14.44;46.92
29879;BME280;16752;53.364;-1.488;2022-12-29T06:05:21;97919.19;;;13.62;48.79
29879;BME280;16752;53.364;-1.488;2022-12-29T06:10:53;97929.22;;;14.11;47.94
29879;BME280;16752;53.364;-1.488;2022-12-29T06:17:30;97932.97;;;14.52;46.36
29879;BME280;16752;53.364;-1.488;2022-12-29T06:32:34;97945.47;;;15.01;44.91
29879;BME280;16752;53.364;-1.488;2022-12-29T06:35:08;97937.44;;;14.07;46.94
29879;BME280;16752;53.364;-1.488;2022-12-29T06:41:18;97953.34;;;13.99;47.28
29879;BME280;16752;53.364;-1.488;2022-12-29T06:44:01;97948.06;;;13.32;49.28
29879;BME280;16752;53.364;-1.488;2022-12-29T06:50:03;97955.16;;;13.99;47.71
29879;BME280;16752;53.364;-1.488;2022-12-29T07:01:57;97966.84;;;13.67;47.61
29879;BME280;16752;53.364;-1.488;2022-12-29T07:04:40;97965.97;;;14.19;47.26
29879;BME280;16752;53.364;-1.488;2022-12-29T07:13:28;97968.25;;;13.09;49.64
29879;BME280;16752;53.364;-1.488;2022-12-29T07:21:42;97996.72;;;14.03;47.42
29879;BME280;16752;53.364;-1.488;2022-12-29T07:37:43;97994.28;;;12.96;50.32
29879;BME280;16752;53.364;-1.488;2022-12-29T07:40:17;98010.72;;;13.29;48.98
29879;BME280;16752;53.364;-1.488;2022-12-29T07:49:43;98018.97;;;13.63;47.03
29879;BME280;16752;53.364;-1.488;2022-12-29T07:52:27;98038.97;;;13.72;47.42
29879;BME280;16752;53.364;-1.488;2022-12-29T07:55:13;98026.03;;;13.48;48.18
29879;BME280;16752;53.364;-1.488;2022-12-29T07:57:42;98041.88;;;13.01;49.56
29879;BME280;16752;53.364;-1.488;2022-12-29T08:00:20;98048.94;;;14.29;46.52
29879;BME280;16752;53.364;-1.488;2022-12-29T08:09:57;98062.66;;;13.72;48.35
29879;BME280;16752;53.364;-1.488;2022-12-29T08:12:29;98064.66;;;13.48;48.83
29879;BME280;16752;53.364;-1.488;2022-12-29T08:24:00;98086.03;;;12.74;49.53
29879;BME280;16752;53.364;-1.488;2022-12-29T08:33:00;98101.50;;;13.39;47.48
29879;BME280;16752;53.364;-1.488;2022-12-29T08:35:32;98110.00;;;13.95;46.54
29879;BME280;16752;53.364;-1.488;2022-12-29T08:38:06;98110.75;;;13.35;47.62
29879;BME280;16752;53.364;-1.488;2022-12-29T08:40:47;98077.97;;;13.15;47.45
29879;BME280;16752;53.364;-1.488;2022-12-29T08:43:40;98114.94;;;13.75;46.68
29879;BME280;16752;53.364;-1.488;2022-12-29T08:46:13;98118.38;;;13.76;46.86
29879;BME280;16752;53.364;-1.488;2022-12-29T08:48:44;98127.47;;;13.65;47.07
29879;BME280;16752;53.364;-1.488;2022-12-29T08:51:15;98146.75;;;12.79;48.38
29879;BME280;16752;53.364;-1.488;2022-12-29T08:56:46;98153.69;;;14.04;45.90
29879;BME280;16752;53.364;-1.488;2022-12-29T08:59:15;98154.84;;;13.79;46.50
29879;BME280;16752;53.364;-1.488;2022-12-29T09:01:52;98165.13;;;14.57;44.87
29879;BME280;16752;53.364;-1.488;2022-12-29T09:04:42;98162.84;;;14.31;45.69
29879;BME280;16752;53.364;-1.488;2022-12-29T09:07:12;98170.31;;;13.20;47.86
29879;BME280;16752;53.364;-1.488;2022-12-29T09:10:00;98180.25;;;14.18;45.64
29879;BME280;16752;53.364;-1.488;2022-12-29T09:12:28;98169.03;;;13.00;48.07
29879;BME280;16752;53.364;-1.488;2022-12-29T09:14:54;98140.84;;;13.33;47.51
29879;BME280;16752;53.364;-1.488;2022-12-29T09:20:35;98174.72;;;14.50;44.98
29879;BME280;16752;53.364;-1.488;2022-12-29T09:23:24;98190.72;;;13.49;46.95
29879;BME280;16752;53.364;-1.488;2022-12-29T09:34:25;98169.38;;;13.75;44.55
29879;BME280;16752;53.364;-1.488;2022-12-29T09:36:56;98188.53;;;12.66;47.02
29879;BME280;16752;53.364;-1.488;2022-12-29T09:39:23;98198.38;;;14.58;42.69
29879;BME280;16752;53.364;-1.488;2022-12-29T09:45:15;98207.69;;;13.38;43.91
29879;BME280;16752;53.364;-1.488;2022-12-29T09:50:37;98196.59;;;14.13;42.77
29879;BME280;16752;53.364;-1.488;2022-12-29T09:56:11;98233.50;;;14.51;41.17
29879;BME280;16752;53.364;-1.488;2022-12-29T09:58:52;98243.44;;;14.18;41.28
29879;BME280;16752;53.364;-1.488;2022-12-29T10:04:18;98235.19;;;13.98;41.73
29879;BME280;16752;53.364;-1.488;2022-12-29T10:09:52;98239.56;;;14.51;41.09
29879;BME280;16752;53.364;-1.488;2022-12-29T10:25:47;98265.06;;;15.11;38.86
29879;BME280;16752;53.364;-1.488;2022-12-29T10:31:03;98275.41;;;14.60;39.86
29879;BME280;16752;53.364;-1.488;2022-12-29T10:33:37;98254.88;;;15.23;39.82
29879;BME280;16752;53.364;-1.488;2022-12-29T10:39:57;98278.59;;;15.08;39.27
29879;BME280;16752;53.364;-1.488;2022-12-29T10:42:29;98269.09;;;14.47;40.92
29879;BME280;16752;53.364;-1.488;2022-12-29T10:45:02;98294.28;;;14.87;39.94
29879;BME280;16752;53.364;-1.488;2022-12-29T10:47:36;98290.34;;;14.45;40.49
29879;BME280;16752;53.364;-1.488;2022-12-29T10:50:15;98294.22;;;14.95;39.62
29879;BME280;16752;53.364;-1.488;2022-12-29T10:52:44;98289.25;;;15.00;39.95
29879;BME280;16752;53.364;-1.488;2022-12-29T10:55:21;98283.59;;;15.18;39.30
29879;BME280;16752;53.364;-1.488;2022-12-29T10:57:48;98298.19;;;15.87;37.68
29879;BME280;16752;53.364;-1.488;2022-12-29T11:00:47;98305.09;;;14.00;41.44
29879;BME280;16752;53.364;-1.488;2022-12-29T11:08:56;98317.66;;;14.90;39.52
29879;BME280;16752;53.364;-1.488;2022-12-29T11:11:23;98318.88;;;15.02;38.76
29879;BME280;16752;53.364;-1.488;2022-12-29T11:13:50;98321.72;;;15.15;38.25
29879;BME280;16752;53.364;-1.488;2022-12-29T11:16:28;98329.03;;;14.67;39.86
29879;BME280;16752;53.364;-1.488;2022-12-29T11:19:03;98331.91;;;14.27;40.20
29879;BME280;16752;53.364;-1.488;2022-12-29T11:24:30;98330.25;;;14.34;40.13
29879;BME280;16752;53.364;-1.488;2022-12-29T11:29:40;98328.28;;;14.28;40.50
29879;BME280;16752;53.364;-1.488;2022-12-29T11:32:13;98324.28;;;13.78;41.01
29879;BME280;16752;53.364;-1.488;2022-12-29T11:35:18;98318.19;;;15.52;38.13
29879;BME280;16752;53.364;-1.488;2022-12-29T11:38:04;98332.63;;;15.12;38.77
29879;BME280;16752;53.364;-1.488;2022-12-29T11:40:37;98329.94;;;14.29;39.99
29879;BME280;16752;53.364;-1.488;2022-12-29T11:43:17;98362.31;;;14.91;38.95
29879;BME280;16752;53.364;-1.488;2022-12-29T11:46:18;98337.19;;;14.81;39.30
29879;BME280;16752;53.364;-1.488;2022-12-29T11:49:10;98323.97;;;15.04;39.14
29879;BME280;16752;53.364;-1.488;2022-12-29T11:51:51;98319.91;;;15.31;37.75
29879;BME280;16752;53.364;-1.488;2022-12-29T11:57:35;98349.56;;;16.57;36.22
29879;BME280;16752;53.364;-1.488;2022-12-29T12:00:19;98330.47;;;16.62;35.62
29879;BME280;16752;53.364;-1.488;2022-12-29T12:03:02;98343.59;;;17.47;34.70
29879;BME280;16752;53.364;-1.488;2022-12-29T12:05:49;98336.63;;;17.11;34.76
29879;BME280;16752;53.364;-1.488;2022-12-29T12:14:38;98340.38;;;17.80;33.49
29879;BME280;16752;53.364;-1.488;2022-12-29T12:17:25;98342.47;;;17.63;33.65
29879;BME280;16752;53.364;-1.488;2022-12-29T12:20:45;98359.34;;;16.78;35.93
29879;BME280;16752;53.364;-1.488;2022-12-29T12:23:36;98354.22;;;16.04;36.30
29879;BME280;16752;53.364;-1.488;2022-12-29T12:26:11;98368.53;;;16.10;36.98
29879;BME280;16752;53.364;-1.488;2022-12-29T12:31:16;98371.81;;;16.84;35.36
29879;BME280;16752;53.364;-1.488;2022-12-29T12:33:51;98382.00;;;14.81;38.10
29879;BME280;16752;53.364;-1.488;2022-12-29T12:36:29;98372.13;;;16.38;36.94
29879;BME280;16752;53.364;-1.488;2022-12-29T12:39:11;98373.72;;;15.07;38.65
29879;BME280;16752;53.364;-1.488;2022-12-29T12:41:50;98390.13;;;15.32;37.87
29879;BME280;16752;53.364;-1.488;2022-12-29T12:44:37;98369.91;;;15.76;37.31
29879;BME280;16752;53.364;-1.488;2022-12-29T12:50:25;98369.44;;;16.02;36.40
29879;BME280;16752;53.364;-1.488;2022-12-29T12:53:06;98375.28;;;15.83;37.68
29879;BME280;16752;53.364;-1.488;2022-12-29T13:09:00;98395.66;;;15.59;37.55
29879;BME280;16752;53.364;-1.488;2022-12-29T13:11:39;98385.91;;;14.85;38.86
29879;BME280;16752;53.364;-1.488;2022-12-29T13:17:01;98394.84;;;15.59;37.15
29879;BME280;16752;53.364;-1.488;2022-12-29T13:19:30;98400.63;;;14.79;38.97
29879;BME280;16752;53.364;-1.488;2022-12-29T13:25:02;98409.22;;;15.19;37.77
29879;BME280;16752;53.364;-1.488;2022-12-29T13:27:39;98410.75;;;14.90;38.64
29879;BME280;16752;53.364;-1.488;2022-12-29T13:30:19;98407.25;;;14.44;39.47
29879;BME280;16752;53.364;-1.488;2022-12-29T13:38:24;98412.16;;;15.62;37.10
29879;BME280;16752;53.364;-1.488;2022-12-29T13:41:02;98409.16;;;15.79;36.97
29879;BME280;16752;53.364;-1.488;2022-12-29T13:43:36;98413.16;;;15.75;36.20
29879;BME280;16752;53.364;-1.488;2022-12-29T13:49:07;98404.47;;;14.91;38.37
29879;BME280;16752;53.364;-1.488;2022-12-29T13:55:34;98429.50;;;14.95;37.92
29879;BME280;16752;53.364;-1.488;2022-12-29T14:06:16;98421.34;;;14.59;37.67
29879;BME280;16752;53.364;-1.488;2022-12-29T14:08:47;98429.09;;;14.84;37.68
29879;BME280;16752;53.364;-1.488;2022-12-29T14:11:20;98434.91;;;15.02;37.69
29879;BME280;16752;53.364;-1.488;2022-12-29T14:13:47;98435.38;;;14.83;38.54
29879;BME280;16752;53.364;-1.488;2022-12-29T14:19:38;98449.38;;;15.06;37.09
29879;BME280;16752;53.364;-1.488;2022-12-29T14:28:15;98457.81;;;14.79;37.94
29879;BME280;16752;53.364;-1.488;2022-12-29T14:40:02;98490.09;;;13.62;38.29
29879;BME280;16752;53.364;-1.488;2022-12-29T14:45:24;98491.16;;;15.40;35.84
29879;BME280;16752;53.364;-1.488;2022-12-29T14:48:07;98476.97;;;14.64;37.38
29879;BME280;16752;53.364;-1.488;2022-12-29T14:52:48;98486.56;;;14.57;37.40
29879;BME280;16752;53.364;-1.488;2022-12-29T14:57:50;98489.81;;;14.67;37.36
29879;BME280;16752;53.364;-1.488;2022-12-29T15:00:24;98499.03;;;14.94;36.59
29879;BME280;16752;53.364;-1.488;2022-12-29T15:03:04;98511.69;;;14.21;38.05
29879;BME280;16752;53.364;-1.488;2022-12-29T15:05:40;98497.38;;;15.24;36.31
29879;BME280;16752;53.364;-1.488;2022-12-29T15:08:12;98528.91;;;14.87;36.77
29879;BME280;16752;53.364;-1.488;2022-12-29T15:10:40;98543.00;;;13.99;38.75
29879;BME280;16752;53.364;-1.488;2022-12-29T15:13:22;98529.69;;;14.64;37.88
29879;BME280;16752;53.364;-1.488;2022-12-29T15:15:57;98520.69;;;13.47;40.64
29879;BME280;16752;53.364;-1.488;2022-12-29T15:18:29;98522.59;;;14.01;39.75
29879;BME280;16752;53.364;-1.488;2022-12-29T15:20:58;98538.94;;;14.91;37.87
29879;BME280;16752;53.364;-1.488;2022-12-29T15:23:29;98532.50;;;13.26;41.25
29879;BME280;16752;53.364;-1.488;2022-12-29T15:26:15;98542.44;;;14.45;39.21
29879;BME280;16752;53.364;-1.488;2022-12-29T15:28:56;98552.56;;;13.43;40.66
29879;BME280;16752;53.364;-1.488;2022-12-29T15:31:58;98541.22;;;13.59;40.37
29879;BME280;16752;53.364;-1.488;2022-12-29T15:34:39;98545.16;;;14.12;39.74
29879;BME280;16752;53.364;-1.488;2022-12-29T15:39:56;98564.59;;;13.46;40.45
29879;BME280;16752;53.364;-1.488;2022-12-29T15:45:42;98575.25;;;14.01;39.83
29879;BME280;16752;53.364;-1.488;2022-12-29T15:48:13;98582.53;;;13.67;40.56
29879;BME280;16752;53.364;-1.488;2022-12-29T15:50:41;98579.47;;;14.59;38.54
29879;BME280;16752;53.364;-1.488;2022-12-29T15:56:02;98601.59;;;13.85;40.40
29879;BME280;16752;53.364;-1.488;2022-12-29T15:58:31;98612.09;;;14.10;39.83
29879;BME280;16752;53.364;-1.488;2022-12-29T16:01:16;98607.31;;;14.29;39.21
29879;BME280;16752;53.364;-1.488;2022-12-29T16:03:42;98615.03;;;14.39;39.01
29879;BME280;16752;53.364;-1.488;2022-12-29T16:06:28;98624.59;;;13.59;39.98
29879;BME280;16752;53.364;-1.488;2022-12-29T16:08:58;98624.28;;;14.43;38.56
29879;BME280;16752;53.364;-1.488;2022-12-29T16:13:50;98628.88;;;13.52;40.47
29879;BME280;16752;53.364;-1.488;2022-12-29T16:16:23;98635.47;;;13.72;40.31
29879;BME280;16752;53.364;-1.488;2022-12-29T16:18:50;98648.16;;;13.18;41.26
29879;BME280;16752;53.364;-1.488;2022-12-29T16:21:51;98651.00;;;13.25;41.01
29879;BME280;16752;53.364;-1.488;2022-12-29T16:24:19;98653.06;;;13.88;40.39
29879;BME280;16752;53.364;-1.488;2022-12-29T16:27:23;98659.84;;;14.15;39.87
29879;BME280;16752;53.364;-1.488;2022-12-29T16:29:55;98665.53;;;13.11;41.58
29879;BME280;16752;53.364;-1.488;2022-12-29T16:32:30;98661.81;;;14.61;38.48
29879;BME280;16752;53.364;-1.488;2022-12-29T16:40:54;98672.94;;;13.66;40.68
29879;BME280;16752;53.364;-1.488;2022-12-29T16:43:24;98683.22;;;13.35;41.42
29879;BME280;16752;53.364;-1.488;2022-12-29T16:48:26;98674.31;;;14.27;39.25
29879;BME280;16752;53.364;-1.488;2022-12-29T16:51:13;98685.50;;;14.04;40.16
29879;BME280;16752;53.364;-1.488;2022-12-29T16:53:41;98690.25;;;13.85;40.16
29879;BME280;16752;53.364;-1.488;2022-12-29T16:56:15;98686.50;;;14.36;38.92
29879;BME280;16752;53.364;-1.488;2022-12-29T16:58:45;98702.47;;;13.01;41.93
29879;BME280;16752;53.364;-1.488;2022-12-29T17:01:16;98700.44;;;13.21;41.84
29879;BME280;16752;53.364;-1.488;2022-12-29T17:03:53;98691.34;;;13.58;40.66
29879;BME280;16752;53.364;-1.488;2022-12-29T17:06:26;98699.94;;;12.40;43.37
29879;BME280;16752;53.364;-1.488;2022-12-29T17:08:52;98696.28;;;13.61;40.92
29879;BME280;16752;53.364;-1.488;2022-12-29T17:11:31;98705.38;;;13.83;40.79
29879;BME280;16752;53.364;-1.488;2022-12-29T17:14:30;98714.91;;;13.67;40.68
29879;BME280;16752;53.364;-1.488;2022-12-29T17:17:26;98710.31;;;13.77;40.75
29879;BME280;16752;53.364;-1.488;2022-12-29T17:19:52;98729.06;;;13.24;41.78
29879;BME280;16752;53.364;-1.488;2022-12-29T17:22:20;98726.16;;;14.02;40.28
29879;BME280;16752;53.364;-1.488;2022-12-29T17:24:49;98740.41;;;13.75;40.85
29879;BME280;16752;53.364;-1.488;2022-12-29T17:27:36;98748.03;;;13.94;40.46
29879;BME280;16752;53.364;-1.488;2022-12-29T17:30:10;98741.06;;;13.69;41.01
29879;BME280;16752;53.364;-1.488;2022-12-29T17:32:36;98748.25;;;13.51;41.50
29879;BME280;16752;53.364;-1.488;2022-12-29T17:35:03;98754.91;;;13.11;41.84
29879;BME280;16752;53.364;-1.488;2022-12-29T17:37:30;98737.00;;;13.06;42.61
29879;BME280;16752;53.364;-1.488;2022-12-29T17:39:56;98729.34;;;13.21;41.76
29879;BME280;16752;53.364;-1.488;2022-12-29T17:42:22;98736.22;;;14.23;39.88
29879;BME280;16752;53.364;-1.488;2022-12-29T17:44:47;98738.94;;;13.81;40.43
29879;BME280;16752;53.364;-1.488;2022-12-29T17:47:16;98735.38;;;13.13;41.99
29879;BME280;16752;53.364;-1.488;2022-12-29T17:49:41;98745.03;;;13.05;41.92
29879;BME280;16752;53.364;-1.488;2022-12-29T17:52:13;98762.84;;;13.95;40.34
29879;BME280;16752;53.364;-1.488;2022-12-29T17:54:41;98765.56;;;13.27;41.73
29879;BME280;16752;53.364;-1.488;2022-12-29T17:57:14;98774.66;;;13.15;41.90
29879;BME280;16752;53.364;-1.488;2022-12-29T17:59:41;98769.19;;;13.34;42.07
29879;BME280;16752;53.364;-1.488;2022-12-29T18:02:22;98773.38;;;13.19;42.37
29879;BME280;16752;53.364;-1.488;2022-12-29T18:04:49;98770.31;;;13.24;42.00
29879;BME280;16752;53.364;-1.488;2022-12-29T18:07:18;98777.72;;;13.28;41.79
29879;BME280;16752;53.364;-1.488;2022-12-29T18:09:47;98776.69;;;13.21;41.61
29879;BME280;16752;53.364;-1.488;2022-12-29T18:12:29;98787.47;;;13.86;40.50
29879;BME280;16752;53.364;-1.488;2022-12-29T18:14:59;98782.94;;;13.20;41.82
29879;BME280;16752;53.364;-1.488;2022-12-29T18:17:25;98794.56;;;13.43;41.08
29879;BME280;16752;53.364;-1.488;2022-12-29T18:19:51;98791.34;;;13.58;40.99
29879;BME280;16752;53.364;-1.488;2022-12-29T18:22:19;98791.28;;;12.72;43.15
29879;BME280;16752;53.364;-1.488;2022-12-29T18:24:44;98792.16;;;12.37;43.42
29879;BME280;16752;53.364;-1.488;2022-12-29T18:27:11;98791.38;;;13.06;41.81
29879;BME280;16752;53.364;-1.488;2022-12-29T18:29:36;98794.38;;;13.71;40.52
29879;BME280;16752;53.364;-1.488;2022-12-29T18:32:02;98793.34;;;13.30;41.37
29879;BME280;16752;53.364;-1.488;2022-12-29T18:34:29;98811.94;;;12.84;42.18
29879;BME280;16752;53.364;-1.488;2022-12-29T18:36:55;98815.38;;;13.11;41.79
29879;BME280;16752;53.364;-1.488;2022-12-29T18:39:22;98813.22;;;13.24;41.55
29879;BME280;16752;53.364;-1.488;2022-12-29T18:41:48;98819.69;;;12.50;42.71
29879;BME280;16752;53.364;-1.488;2022-12-29T18:44:13;98821.19;;;12.97;42.41
29879;BME280;16752;53.364;-1.488;2022-12-29T18:46:45;98820.72;;;12.75;42.66
29879;BME280;16752;53.364;-1.488;2022-12-29T18:49:11;98836.91;;;12.89;42.09
29879;BME280;16752;53.364;-1.488;2022-12-29T18:51:40;98846.91;;;12.32;43.73
29879;BME280;16752;53.364;-1.488;2022-12-29T18:54:05;98845.78;;;12.34;43.46
29879;BME280;16752;53.364;-1.488;2022-12-29T18:56:33;98850.50;;;13.02;41.84
29879;BME280;16752;53.364;-1.488;2022-12-29T18:58:59;98853.44;;;13.85;40.15
29879;BME280;16752;53.364;-1.488;2022-12-29T19:01:25;98855.50;;;13.13;41.74
29879;BME280;16752;53.364;-1.488;2022-12-29T19:23:01;98832.31;;;13.08;41.17
29879;BME280;16752;53.364;-1.488;2022-12-29T19:25:37;98847.75;;;12.50;42.45
29879;BME280;16752;53.364;-1.488;2022-12-29T19:28:04;98852.38;;;13.35;40.36
29879;BME280;16752;53.364;-1.488;2022-12-29T19:30:30;98856.09;;;13.51;40.39
29879;BME280;16752;53.364;-1.488;2022-12-29T19:33:01;98866.34;;;12.57;42.72
29879;BME280;16752;53.364;-1.488;2022-12-29T19:35:36;98870.94;;;12.72;41.97
29879;BME280;16752;53.364;-1.488;2022-12-29T19:38:11;98869.00;;;13.36;40.61
29879;BME280;16752;53.364;-1.488;2022-12-29T19:40:46;98879.03;;;12.97;41.75
29879;BME280;16752;53.364;-1.488;2022-12-29T19:43:46;98876.22;;;13.34;40.86
29879;BME280;16752;53.364;-1.488;2022-12-29T19:46:41;98885.44;;;12.41;43.13
29879;BME280;16752;53.364;-1.488;2022-12-29T19:49:25;98883.44;;;13.58;40.19
29879;BME280;16752;53.364;-1.488;2022-12-29T19:51:50;98881.28;;;13.27;40.84
29879;BME280;16752;53.364;-1.488;2022-12-29T19:54:26;98879.00;;;13.32;40.92
29879;BME280;16752;53.364;-1.488;2022-12-29T19:57:20;98882.19;;;13.18;41.39
29879;BME280;16752;53.364;-1.488;2022-12-29T19:59:47;98869.03;;;13.18;41.30
29879;BME280;16752;53.364;-1.488;2022-12-29T20:02:23;98868.78;;;13.29;41.02
29879;BME280;16752;53.364;-1.488;2022-12-29T20:04:48;98880.31;;;12.39;42.47
29879;BME280;16752;53.364;-1.488;2022-12-29T20:07:19;98874.38;;;13.26;41.19
29879;BME280;16752;53.364;-1.488;2022-12-29T20:09:45;98869.13;;;12.73;41.65
29879;BME280;16752;53.364;-1.488;2022-12-29T20:12:11;98877.34;;;13.31;40.34
29879;BME280;16752;53.364;-1.488;2022-12-29T20:14:37;98873.34;;;12.83;41.68
29879;BME280;16752;53.364;-1.488;2022-12-29T20:17:04;98877.78;;;12.02;43.98
29879;BME280;16752;53.364;-1.488;2022-12-29T20:19:33;98892.72;;;12.82;41.62
29879;BME280;16752;53.364;-1.488;2022-12-29T20:22:00;98896.47;;;12.62;41.97
29879;BME280;16752;53.364;-1.488;2022-12-29T20:24:26;98897.22;;;12.72;42.33
29879;BME280;16752;53.364;-1.488;2022-12-29T20:27:12;98907.41;;;12.40;43.11
29879;BME280;16752;53.364;-1.488;2022-12-29T20:32:35;98923.91;;;12.05;43.66
29879;BME280;16752;53.364;-1.488;2022-12-29T20:35:00;98916.66;;;12.97;41.16
29879;BME280;16752;53.364;-1.488;2022-12-29T20:40:17;98932.56;;;12.78;42.30
29879;BME280;16752;53.364;-1.488;2022-12-29T20:56:58;98950.06;;;13.40;42.08
29879;BME280;16752;53.364;-1.488;2022-12-29T21:03:53;98955.50;;;13.65;40.95
29879;BME280;16752;53.364;-1.488;2022-12-29T21:14:12;98957.97;;;13.23;41.32
29879;BME280;16752;53.364;-1.488;2022-12-29T21:17:13;98959.00;;;13.12;41.89
29879;BME280;16752;53.364;-1.488;2022-12-29T21:23:41;98954.38;;;12.43;44.06
29879;BME280;16752;53.364;-1.488;2022-12-29T21:26:51;98944.38;;;12.92;42.87
29879;BME280;16752;53.364;-1.488;2022-12-29T21:30:09;98941.69;;;12.83;43.30
29879;BME280;16752;53.364;-1.488;2022-12-29T21:33:16;98942.94;;;12.97;42.87
29879;BME280;16752;53.364;-1.488;2022-12-29T21:39:09;98944.31;;;12.83;43.24
29879;BME280;16752;53.364;-1.488;2022-12-29T22:42:33;98914.47;;;12.39;44.95
29879;BME280;16752;53.364;-1.488;2022-12-29T22:45:02;98909.28;;;12.02;46.22
29879;BME280;16752;53.364;-1.488;2022-12-29T22:47:34;98904.75;;;11.38;47.57
29879;BME280;16752;53.364;-1.488;2022-12-29T22:50:02;98898.59;;;11.67;47.32
29879;BME280;16752;53.364;-1.488;2022-12-29T22:52:43;98892.47;;;11.95;46.20
29879;BME280;16752;53.364;-1.488;2022-12-29T22:55:46;98898.69;;;11.38;48.26
29879;BME280;16752;53.364;-1.488;2022-12-29T22:58:14;98897.81;;;12.03;46.14
29879;BME280;16752;53.364;-1.488;2022-12-29T23:01:37;98905.53;;;12.50;44.34
29879;BME280;16752;53.364;-1.488;2022-12-29T23:04:57;98911.59;;;12.33;44.49
29879;BME280;16752;53.364;-1.488;2022-12-29T23:08:18;98915.25;;;12.22;44.60
29879;BME280;16752;53.364;-1.488;2022-12-29T23:15:08;98917.44;;;11.43;47.58
29879;BME280;16752;53.364;-1.488;2022-12-29T23:25:12;98908.09;;;12.14;45.05
29879;BME280;16752;53.364;-1.488;2022-12-29T23:38:14;98887.94;;;12.15;45.91
29879;BME280;16752;53.364;-1.488;2022-12-29T23:41:02;98875.41;;;11.06;48.76
29879;BME280;16752;53.364;-1.488;2022-12-29T23:43:48;98879.50;;;11.84;46.46
29879;BME280;16752;53.364;-1.488;2022-12-29T23:46:47;98875.75;;;12.14;45.93
29879;BME280;16752;53.364;-1.488;2022-12-29T23:52:02;98866.25;;;11.85;47.31
29879;BME280;16752;53.364;-1.488;2022-12-29T23:54:45;98862.75;;;12.58;45.20
29879;BME280;16752;53.364;-1.488;2022-12-29T23:57:40;98862.78;;;12.12;46.13
